• Join FlightAware (Why Join?)
  • Login
  • US Flag 
02:36AM EST


 

Airport Tracker/Info


-or-


 

Live Flight TrackerFlight Track Log ✈ SWA268 ✈ 06-Jul-2013 ✈ KSNA - KLAS

Flight Track Log - Related Links

Times and Time Zones

All times are in EDT time to prevent confusion due to time zone crossing. See the SWA268 flight status page for this flight to view local times or setup timezone preferences in your user account.

Time Position Orientation Groundspeed Altitude Reporting Facility
EDT Latitude Longitude Course Direction KTS MPH feet Rate Location/Type
10:27AM 33.6500 -117.8833 203° Southwest 142 163 1,800  Level Southern California TRACON
10:28AM 33.6167 -117.9000 203° Southwest 146 168 3,000 1,740 Climbing Southern California TRACON
10:29AM 33.5458 -117.9047 183° South 193 222 5,800 2,100 Climbing Los Angeles Center
10:30AM 33.5192 -117.9700 244° Southwest 238 274 8,000 1,020 Climbing Los Angeles Center
10:31AM 33.5572 -118.0644 296° West 277 319 8,000 1,080 Level Los Angeles Center
10:32AM 33.6300 -118.0861 346° North 301 346 10,300 2,880 Climbing Los Angeles Center
10:33AM 33.7161 -118.0669 10° North 314 361 14,000 2,880 Climbing Los Angeles Center
10:34AM 33.8100 -118.0303 18° North 357 411 16,300 3,120 Climbing Los Angeles Center
10:36AM 33.8944 -117.9528 37° Northeast 379 436 20,400 3,180 Climbing Los Angeles Center
10:37AM 33.9817 -117.8756 36° Northeast 389 448 22,900 2,340 Climbing Los Angeles Center
10:38AM 34.0883 -117.7756 38° Northeast 401 461 25,300 2,580 Climbing Los Angeles Center
10:39AM 34.1650 -117.6711 48° Northeast 415 478 28,300 1,800 Climbing Los Angeles Center
10:40AM 34.2408 -117.5669 49° Northeast 414 476 29,000 300 Climbing Los Angeles Center
10:41AM 34.3192 -117.4611 48° Northeast 420 483 29,000  Level Los Angeles Center
10:42AM 34.3989 -117.3525 48° Northeast 416 479 29,000  Level Los Angeles Center
10:43AM 34.4750 -117.2486 48° Northeast 415 478 29,000  Level Los Angeles Center
10:44AM 34.5522 -117.1431 48° Northeast 420 483 29,000  Level Los Angeles Center
10:45AM 34.6281 -117.0381 49° Northeast 417 480 29,000  Level Los Angeles Center
10:46AM 34.7044 -116.9331 48° Northeast 418 481 29,000  Level Los Angeles Center
10:47AM 34.7961 -116.8061 49° Northeast 419 482 29,000  Level Los Angeles Center
10:48AM 34.8719 -116.7014 49° Northeast 415 478 29,000 -300 Level Los Angeles Center
10:49AM 34.9475 -116.5967 49° Northeast 414 476 28,500 -1,500 Descending Los Angeles Center
10:50AM 35.0272 -116.4931 47° Northeast 418 481 25,900 -2,220 Descending Los Angeles Center
10:51AM 35.1086 -116.3922 45° Northeast 419 482 24,000 -960 Descending Los Angeles Center
10:52AM 35.1869 -116.2936 46° Northeast 410 472 24,000  Level Los Angeles Center
10:53AM 35.2658 -116.1972 45° Northeast 404 465 24,000 -1,260 Level Los Angeles Center
10:54AM 35.3547 -116.0800 47° Northeast 394 453 21,500 -2,220 Descending Los Angeles Center
10:55AM 35.4300 -115.9881 45° Northeast 387 445 19,500 -2,040 Descending Los Angeles Center
10:56AM 35.5019 -115.8975 46° Northeast 376 433 17,400 -2,040 Descending Los Angeles Center
10:57AM 35.5683 -115.8178 44° Northeast 365 420 15,700 -1,860 Descending Los Angeles Center
10:58AM 35.6408 -115.7206 47° Northeast 354 407 13,600 -1,260 Descending Los Angeles Center
10:59AM 35.7061 -115.6358 46° Northeast 345 397 13,000 -300 Descending Los Angeles Center
11:00AM 35.7950 -115.5758 29° Northeast 319 367 13,000  Level Los Angeles Center
11:01AM 35.8794 -115.5669 North 322 371 13,000  Level Los Angeles Center
11:02AM 35.9719 -115.5425 12° North 335 386 13,000 -720 Level Los Angeles Center
11:03AM 36.0072 -115.4433 66° East 320 368 11,600 -1,080 Descending Los Angeles Center
11:04AM 36.0292 -115.3433 75° East 308 354 10,900 -840 Descending Los Angeles Center
11:05AM 36.0211 -115.2483 96° East 287 330 9,700 -1,200 Descending Los Angeles Center
11:07AM 36.0139 -115.1303 94° East 251 289 8,300 -1,020 Descending Los Angeles Center
11:08AM 36.0086 -115.0628 96° East 236 272 7,600 -960 Descending Los Angeles Center
11:09AM 36.0031 -114.9822 95° East 206 237 6,400 -1,020 Descending Los Angeles Center
11:10AM 36.0350 -114.9397 47° Northeast 213 245 5,500 -960 Descending Los Angeles Center
11:11AM 36.0706 -114.9661 329° Northwest 204 235 4,400 -1,080 Descending Los Angeles Center
11:12AM 36.0736 -115.0281 274° West 176 203 3,500 -840 Descending Los Angeles Center
11:13AM 36.0736 -115.0758 270° West 169 194 2,700 -720 Descending Los Angeles Center
11:13AM 36.0733 -115.1158 270° West 136 157 2,200 -720 Descending Los Angeles Center
11:16AM 36.0667 -115.1500 270° West  Level FlightAware Approximate